createdAt,value
2023-05-10T00:00:06.911Z,4.07
2023-05-10T00:02:35.049Z,3.42
2023-05-10T00:05:02.727Z,3.60
2023-05-10T00:07:29.952Z,3.83
2023-05-10T00:09:57.146Z,3.92
2023-05-10T00:12:24.386Z,3.88
2023-05-10T00:14:51.584Z,3.63
2023-05-10T00:17:20.143Z,3.53
2023-05-10T00:19:47.412Z,3.97
2023-05-10T00:22:14.625Z,3.85
2023-05-10T00:24:41.834Z,3.90
2023-05-10T00:27:09.043Z,3.72
2023-05-10T00:29:36.242Z,4.18
2023-05-10T00:32:03.584Z,3.70
2023-05-10T00:34:32.286Z,3.58
2023-05-10T00:36:59.510Z,3.67
2023-05-10T00:39:27.391Z,4.05
2023-05-10T00:41:54.586Z,4.07
2023-05-10T00:44:21.812Z,3.80
2023-05-10T00:46:49.068Z,4.07
2023-05-10T00:49:16.255Z,3.53
2023-05-10T00:51:45.560Z,3.83
2023-05-10T00:54:12.941Z,3.78
2023-05-10T00:56:40.170Z,3.97
2023-05-10T00:59:07.368Z,4.20
2023-05-10T01:01:34.616Z,3.65
2023-05-10T01:04:01.894Z,4.60
2023-05-10T01:06:29.353Z,3.65
2023-05-10T01:08:57.959Z,3.90
2023-05-10T01:11:25.193Z,4.00
2023-05-10T01:13:54.343Z,4.28
2023-05-10T01:16:21.554Z,4.33
2023-05-10T01:18:48.798Z,3.85
2023-05-10T01:21:19.505Z,4.13
2023-05-10T01:24:00.970Z,4.57
2023-05-10T01:26:49.998Z,3.67
2023-05-10T01:29:27.755Z,3.75
2023-05-10T01:32:05.094Z,4.00
2023-05-10T01:34:34.163Z,3.85
2023-05-10T01:37:03.326Z,4.03
2023-05-10T01:39:31.646Z,4.27
2023-05-10T01:41:59.963Z,4.25
2023-05-10T01:44:29.524Z,3.65
2023-05-10T01:46:59.314Z,3.78
2023-05-10T01:49:29.238Z,4.40
2023-05-10T01:51:57.362Z,4.22
2023-05-10T01:54:24.569Z,4.30
2023-05-10T01:56:52.321Z,4.13
2023-05-10T01:59:20.211Z,4.38
2023-05-10T02:01:47.445Z,5.65
2023-05-10T02:04:15.345Z,4.20
2023-05-10T02:06:44.718Z,4.32
2023-05-10T02:09:12.054Z,4.65
2023-05-10T02:11:39.335Z,4.53
2023-05-10T02:14:07.546Z,4.30
2023-05-10T02:16:34.827Z,4.10
2023-05-10T02:19:02.059Z,3.97
2023-05-10T02:21:29.358Z,4.03
2023-05-10T02:23:57.886Z,4.00
2023-05-10T02:26:25.963Z,4.13
2023-05-10T02:28:53.376Z,4.63
2023-05-10T02:31:20.801Z,4.55
2023-05-10T02:33:48.058Z,4.65
2023-05-10T02:36:15.309Z,3.90
2023-05-10T02:38:42.532Z,3.97
2023-05-10T02:41:11.187Z,4.75
2023-05-10T02:43:38.384Z,4.20
2023-05-10T02:46:05.705Z,3.97
2023-05-10T02:48:32.949Z,4.30
2023-05-10T02:51:02.397Z,4.63
2023-05-10T02:53:32.634Z,4.25
2023-05-10T02:58:28.427Z,4.63
2023-05-10T03:00:55.631Z,4.40
2023-05-10T03:03:22.959Z,4.32
2023-05-10T03:05:50.190Z,4.35
2023-05-10T03:08:17.363Z,4.70
2023-05-10T03:10:47.311Z,4.68
2023-05-10T03:13:15.284Z,4.53
2023-05-10T03:15:47.550Z,4.40
2023-05-10T03:18:15.074Z,4.50
2023-05-10T03:20:43.398Z,4.93
2023-05-10T03:23:13.124Z,5.07
2023-05-10T03:25:40.876Z,4.72
2023-05-10T03:28:08.065Z,5.50
2023-05-10T03:30:35.747Z,4.43
2023-05-10T03:33:07.549Z,4.85
2023-05-10T03:35:34.757Z,4.75
2023-05-10T03:38:02.054Z,4.20
2023-05-10T03:40:29.788Z,4.80
2023-05-10T03:42:57.028Z,4.07
2023-05-10T03:45:24.224Z,4.40
2023-05-10T03:47:51.456Z,5.03
2023-05-10T03:50:20.194Z,4.38
2023-05-10T03:52:48.081Z,4.43
2023-05-10T03:55:15.260Z,4.95
2023-05-10T03:57:42.474Z,4.65
2023-05-10T04:00:10.535Z,4.75
2023-05-10T04:02:38.535Z,4.20
2023-05-10T04:05:06.364Z,4.35
2023-05-10T04:07:34.889Z,4.60
2023-05-10T04:10:02.193Z,4.45
2023-05-10T04:12:29.420Z,4.43
2023-05-10T04:14:56.618Z,4.53
2023-05-10T04:17:23.861Z,5.20
2023-05-10T04:19:53.904Z,4.20
2023-05-10T04:24:49.649Z,3.95
2023-05-10T04:27:16.941Z,3.90
2023-05-10T04:29:44.605Z,3.70
2023-05-10T04:32:11.991Z,3.60
2023-05-10T04:34:39.221Z,4.00
2023-05-10T04:37:06.422Z,3.75
2023-05-10T04:39:33.894Z,3.70
2023-05-10T04:42:03.651Z,3.40
2023-05-10T04:44:30.868Z,3.65
2023-05-10T04:46:58.049Z,4.00
2023-05-10T04:49:25.309Z,3.58
2023-05-10T04:51:52.526Z,3.33
2023-05-10T04:54:19.728Z,3.67
2023-05-10T04:56:47.389Z,3.42
2023-05-10T04:59:16.015Z,3.35
2023-05-10T05:01:43.463Z,3.20
2023-05-10T05:04:10.778Z,3.20
2023-05-10T05:06:38.186Z,3.05
2023-05-10T05:09:05.484Z,2.92
2023-05-10T05:11:32.700Z,3.58
2023-05-10T05:14:00.791Z,2.95
2023-05-10T05:16:29.337Z,3.00
2023-05-10T05:18:57.274Z,3.63
2023-05-10T05:21:24.925Z,3.20
2023-05-10T05:23:52.141Z,3.00
2023-05-10T05:26:19.351Z,2.70
2023-05-10T05:28:46.563Z,3.97
2023-05-10T05:31:14.745Z,2.70
2023-05-10T05:33:43.264Z,2.95
2023-05-10T05:36:10.543Z,2.92
2023-05-10T05:38:37.730Z,2.53
2023-05-10T05:41:04.944Z,6.55
2023-05-10T05:43:32.164Z,19.85
2023-05-10T05:45:59.560Z,5.45
2023-05-10T05:48:26.793Z,7.78
2023-05-10T05:50:57.800Z,2.25
2023-05-10T05:53:25.116Z,3.65
2023-05-10T05:55:53.017Z,3.10
2023-05-10T05:58:20.241Z,3.38
2023-05-10T06:00:47.433Z,2.65
2023-05-10T06:03:14.683Z,4.68
2023-05-10T06:05:41.904Z,2.88
2023-05-10T06:08:10.654Z,4.35
2023-05-10T06:10:37.870Z,1.80
2023-05-10T06:13:05.193Z,2.67
2023-05-10T06:15:33.468Z,2.03
2023-05-10T06:18:00.754Z,2.40
2023-05-10T06:20:28.028Z,4.15
2023-05-10T06:22:55.249Z,2.70
2023-05-10T06:25:23.814Z,1.63
2023-05-10T06:27:53.584Z,5.10
2023-05-10T06:30:23.926Z,4.75
2023-05-10T06:32:51.277Z,4.60
2023-05-10T06:35:18.924Z,2.92
2023-05-10T06:37:47.583Z,5.13
2023-05-10T06:40:15.334Z,9.13
2023-05-10T06:42:45.688Z,5.60
2023-05-10T06:45:13.653Z,3.65
2023-05-10T06:47:41.308Z,5.07
2023-05-10T06:50:08.753Z,2.55
2023-05-10T06:52:35.953Z,2.58
2023-05-10T06:55:04.397Z,1.85
2023-05-10T06:57:32.333Z,1.27
2023-05-10T07:00:01.007Z,2.75
2023-05-10T07:02:28.299Z,5.03
2023-05-10T07:04:55.687Z,3.15
2023-05-10T07:07:22.979Z,2.53
2023-05-10T07:09:50.938Z,5.32
2023-05-10T07:12:18.237Z,4.22
2023-05-10T07:14:45.510Z,3.10
2023-05-10T07:17:14.048Z,5.95
2023-05-10T07:19:41.279Z,9.30
2023-05-10T07:22:08.591Z,3.88
2023-05-10T07:24:35.781Z,6.50
2023-05-10T07:27:03.037Z,2.83
2023-05-10T07:29:30.406Z,7.65
2023-05-10T07:31:58.857Z,2.60
2023-05-10T07:34:27.595Z,3.35
2023-05-10T07:36:54.787Z,3.22
2023-05-10T07:39:27.825Z,6.65
2023-05-10T07:41:55.429Z,1.90
2023-05-10T07:44:22.653Z,3.35
2023-05-10T07:46:49.985Z,4.80
2023-05-10T07:49:17.231Z,6.88
2023-05-10T07:51:45.786Z,3.00
2023-05-10T07:54:13.525Z,5.55
2023-05-10T07:56:42.813Z,3.08
2023-05-10T07:59:12.535Z,12.32
2023-05-10T08:04:07.380Z,4.20
2023-05-10T08:06:34.638Z,5.68
2023-05-10T08:09:03.283Z,2.20
2023-05-10T08:11:30.528Z,2.83
2023-05-10T08:13:57.735Z,4.25
2023-05-10T08:16:24.948Z,6.18
2023-05-10T08:18:52.333Z,4.57
2023-05-10T08:21:19.597Z,4.43
2023-05-10T08:23:46.811Z,2.65
2023-05-10T08:26:15.306Z,4.20
2023-05-10T08:28:42.497Z,3.50
2023-05-10T08:31:09.739Z,11.80
2023-05-10T08:33:36.996Z,9.57
2023-05-10T08:36:04.310Z,9.70
2023-05-10T08:38:31.540Z,12.13
2023-05-10T08:40:59.518Z,14.05
2023-05-10T08:43:29.885Z,13.65
2023-05-10T08:45:57.411Z,26.40
2023-05-10T08:48:24.784Z,27.75
2023-05-10T08:50:52.723Z,19.50
2023-05-10T08:53:19.924Z,27.85
2023-05-10T08:55:47.125Z,24.23
2023-05-10T08:58:14.320Z,28.65
2023-05-10T09:00:42.911Z,28.85
2023-05-10T09:03:10.165Z,14.32
2023-05-10T09:05:37.584Z,16.02
2023-05-10T09:08:04.932Z,18.52
2023-05-10T09:10:32.150Z,14.80
2023-05-10T09:12:59.697Z,17.25
2023-05-10T09:15:27.091Z,21.40
2023-05-10T09:17:55.738Z,22.77
2023-05-10T09:20:23.496Z,19.70
2023-05-10T09:22:50.886Z,23.35
2023-05-10T09:25:18.390Z,18.17
2023-05-10T09:27:46.749Z,21.55
2023-05-10T09:30:17.346Z,17.52
2023-05-10T09:32:44.843Z,8.90
2023-05-10T09:35:14.373Z,6.82
2023-05-10T09:37:43.409Z,5.82
2023-05-10T09:40:13.071Z,4.82
2023-05-10T09:42:40.332Z,5.10
2023-05-10T09:45:08.011Z,6.55
2023-05-10T09:47:35.704Z,5.35
2023-05-10T09:50:05.055Z,6.15
2023-05-10T09:52:33.790Z,8.88
2023-05-10T09:55:01.029Z,7.88
2023-05-10T09:57:28.284Z,5.72
2023-05-10T09:59:56.144Z,7.45
2023-05-10T10:02:23.602Z,6.35
2023-05-10T10:04:51.385Z,6.20
2023-05-10T10:07:19.496Z,7.82
2023-05-10T10:09:48.017Z,7.82
2023-05-10T10:12:15.264Z,4.80
2023-05-10T10:14:42.565Z,5.70
2023-05-10T10:17:09.953Z,7.72
2023-05-10T10:19:37.598Z,5.43
2023-05-10T10:22:05.558Z,5.47
2023-05-10T10:24:32.831Z,5.15
2023-05-10T10:27:05.287Z,5.20
2023-05-10T10:29:33.817Z,5.00
2023-05-10T10:32:04.524Z,5.97
2023-05-10T10:34:31.866Z,4.78
2023-05-10T10:36:59.561Z,6.70
2023-05-10T10:39:26.918Z,5.75
2023-05-10T10:41:54.496Z,5.45
2023-05-10T10:44:36.369Z,4.35
2023-05-10T10:47:06.836Z,4.30
2023-05-10T10:49:34.610Z,3.40
2023-05-10T10:52:17.950Z,5.15
2023-05-10T10:54:49.044Z,5.00
2023-05-10T10:57:16.407Z,4.35
2023-05-10T10:59:45.220Z,3.25
2023-05-10T11:02:12.433Z,5.55
2023-05-10T11:04:43.399Z,4.65
2023-05-10T11:07:18.240Z,3.88
2023-05-10T11:09:45.499Z,4.93
2023-05-10T11:12:12.835Z,4.07
2023-05-10T11:14:40.066Z,6.53
2023-05-10T11:17:22.215Z,4.43
2023-05-10T11:25:03.264Z,6.50
2023-05-10T11:27:30.525Z,5.75
2023-05-10T11:29:57.753Z,6.40
2023-05-10T11:32:25.005Z,5.40
2023-05-10T11:34:52.386Z,5.15
2023-05-10T11:37:19.790Z,5.22
2023-05-10T11:39:47.429Z,5.20
2023-05-10T11:42:15.939Z,6.00
2023-05-10T11:44:45.208Z,4.65
2023-05-10T11:47:12.416Z,7.18
2023-05-10T11:49:39.606Z,5.65
2023-05-10T11:52:07.444Z,5.97
2023-05-10T11:54:35.701Z,4.25
2023-05-10T11:57:02.893Z,4.75
2023-05-10T11:59:31.397Z,6.07
2023-05-10T12:01:58.582Z,4.68
2023-05-10T12:04:25.858Z,5.93
2023-05-10T12:06:53.087Z,4.03
2023-05-10T12:09:28.285Z,4.45
2023-05-10T12:12:07.193Z,5.30
2023-05-10T12:14:37.022Z,5.35
2023-05-10T12:17:04.218Z,4.18
2023-05-10T12:19:38.391Z,4.60
2023-05-10T12:22:06.458Z,4.13
2023-05-10T12:24:36.144Z,5.22
2023-05-10T12:27:06.376Z,4.18
2023-05-10T12:29:33.580Z,3.60
2023-05-10T12:32:02.146Z,4.32
2023-05-10T12:34:31.889Z,4.50
2023-05-10T12:37:00.036Z,4.93
2023-05-10T12:39:27.258Z,4.55
2023-05-10T12:41:54.451Z,3.83
2023-05-10T12:44:21.658Z,3.95
2023-05-10T12:46:48.887Z,4.38
2023-05-10T12:49:17.697Z,6.00
2023-05-10T12:51:44.903Z,3.90
2023-05-10T12:54:12.130Z,4.72
2023-05-10T12:56:39.328Z,3.63
2023-05-10T12:59:06.542Z,4.32
2023-05-10T13:01:33.817Z,4.82
2023-05-10T13:04:01.910Z,3.95
2023-05-10T13:06:30.558Z,6.07
2023-05-10T13:08:58.474Z,3.50
2023-05-10T13:11:25.671Z,4.43
2023-05-10T13:13:52.943Z,3.78
2023-05-10T13:16:20.317Z,3.20
2023-05-10T13:18:47.577Z,3.80
2023-05-10T13:21:14.782Z,3.33
2023-05-10T13:23:43.264Z,3.22
2023-05-10T13:26:10.517Z,3.35
2023-05-10T13:28:39.610Z,4.10
2023-05-10T13:31:06.852Z,3.40
2023-05-10T13:33:34.045Z,3.65
2023-05-10T13:36:01.224Z,3.50
2023-05-10T13:38:28.385Z,3.20
2023-05-10T13:40:56.927Z,4.05
2023-05-10T13:43:24.113Z,4.57
2023-05-10T13:45:51.328Z,4.28
2023-05-10T13:48:18.545Z,5.10
2023-05-10T13:50:45.831Z,4.43
2023-05-10T13:53:13.440Z,4.45
2023-05-10T13:55:40.674Z,4.28
2023-05-10T13:58:09.184Z,5.80
2023-05-10T14:00:36.409Z,4.15
2023-05-10T14:03:03.661Z,6.75
2023-05-10T14:05:30.886Z,7.13
2023-05-10T14:07:58.079Z,4.82
2023-05-10T14:10:25.276Z,4.43
2023-05-10T14:12:52.539Z,3.88
2023-05-10T14:15:21.059Z,4.45
2023-05-10T14:17:48.697Z,3.90
2023-05-10T14:20:15.919Z,3.60
2023-05-10T14:22:43.112Z,3.88
2023-05-10T14:25:10.524Z,4.90
2023-05-10T14:27:37.770Z,4.25
2023-05-10T14:30:05.319Z,3.60
2023-05-10T14:32:34.027Z,4.63
2023-05-10T14:35:01.408Z,3.80
2023-05-10T14:37:28.665Z,3.65
2023-05-10T14:39:55.908Z,3.95
2023-05-10T14:42:23.164Z,3.92
2023-05-10T14:44:50.408Z,3.40
2023-05-10T14:47:17.626Z,4.35
2023-05-10T14:49:46.133Z,3.30
2023-05-10T14:52:15.161Z,3.72
2023-05-10T14:54:42.394Z,3.60
2023-05-10T14:57:09.570Z,4.05
2023-05-10T14:59:36.750Z,3.13
2023-05-10T15:02:05.153Z,3.97
2023-05-10T15:04:33.137Z,4.18
2023-05-10T15:07:02.176Z,3.78
2023-05-10T15:09:29.400Z,3.25
2023-05-10T15:11:56.647Z,3.70
2023-05-10T15:14:23.885Z,4.22
2023-05-10T15:16:51.139Z,3.13
2023-05-10T15:19:18.358Z,3.85
2023-05-10T15:21:45.919Z,3.63
2023-05-10T15:24:14.405Z,3.42
2023-05-10T15:26:41.972Z,3.45
2023-05-10T15:29:09.484Z,4.15
2023-05-10T15:31:36.979Z,3.35
2023-05-10T15:34:04.273Z,3.15
2023-05-10T15:36:32.312Z,5.25
2023-05-10T15:38:59.506Z,3.45
2023-05-10T15:41:28.009Z,3.15
2023-05-10T15:43:55.344Z,3.47
2023-05-10T15:46:22.746Z,3.45
2023-05-10T15:48:50.032Z,3.33
2023-05-10T15:51:17.303Z,3.25
2023-05-10T15:53:56.481Z,3.38
2023-05-10T15:56:33.076Z,3.03
2023-05-10T15:59:00.271Z,2.90
2023-05-10T16:01:27.566Z,4.65
2023-05-10T16:03:54.840Z,3.58
2023-05-10T16:06:22.062Z,3.13
2023-05-10T16:08:49.321Z,3.42
2023-05-10T16:11:16.500Z,3.17
2023-05-10T16:13:44.986Z,3.58
2023-05-10T16:16:12.325Z,3.40
2023-05-10T16:18:39.836Z,3.92
2023-05-10T16:21:07.534Z,2.60
2023-05-10T16:23:34.725Z,3.42
2023-05-10T16:26:02.115Z,4.25
2023-05-10T16:28:29.346Z,3.00
2023-05-10T16:30:57.867Z,3.08
2023-05-10T16:33:25.055Z,3.42
2023-05-10T16:35:52.254Z,4.40
2023-05-10T16:38:21.402Z,2.92
2023-05-10T16:40:48.672Z,2.73
2023-05-10T16:43:16.091Z,3.40
2023-05-10T16:45:44.038Z,2.85
2023-05-10T16:48:12.568Z,3.42
2023-05-10T16:50:39.809Z,3.97
2023-05-10T16:53:07.055Z,3.15
2023-05-10T16:55:34.362Z,3.00
2023-05-10T16:58:02.822Z,3.85
2023-05-10T17:00:30.039Z,3.17
2023-05-10T17:02:57.447Z,2.70
2023-05-10T17:05:26.962Z,2.83
2023-05-10T17:07:54.588Z,2.97
2023-05-10T17:10:21.876Z,3.08
2023-05-10T17:12:49.262Z,3.13
2023-05-10T17:15:19.162Z,2.80
2023-05-10T17:17:46.684Z,3.28
2023-05-10T17:20:13.883Z,3.25
2023-05-10T17:22:42.496Z,2.65
2023-05-10T17:25:09.813Z,3.08
2023-05-10T17:27:37.048Z,2.90
2023-05-10T17:30:04.520Z,3.08
2023-05-10T17:32:31.819Z,2.83
2023-05-10T17:34:59.358Z,3.05
2023-05-10T17:37:26.600Z,2.60
2023-05-10T17:39:55.124Z,2.45
2023-05-10T17:42:22.383Z,2.80
2023-05-10T17:44:49.622Z,2.78
2023-05-10T17:47:16.834Z,2.80
2023-05-10T17:49:44.051Z,2.70
2023-05-10T17:52:11.680Z,3.22
2023-05-10T17:54:38.897Z,2.65
2023-05-10T17:57:07.582Z,2.75
2023-05-10T17:59:34.822Z,2.50
2023-05-10T18:02:02.238Z,2.92
2023-05-10T18:04:29.478Z,2.60
2023-05-10T18:07:01.282Z,2.42
2023-05-10T18:09:28.778Z,2.70
2023-05-10T18:11:56.077Z,2.63
2023-05-10T18:14:38.925Z,2.97
2023-05-10T18:17:08.294Z,2.63
2023-05-10T18:19:35.632Z,3.55
2023-05-10T18:22:03.241Z,2.95
2023-05-10T18:24:38.831Z,2.83
2023-05-10T18:27:07.031Z,2.72
2023-05-10T18:29:36.125Z,2.67
2023-05-10T18:32:03.409Z,2.77
2023-05-10T18:34:30.676Z,2.97
2023-05-10T18:36:57.992Z,2.80
2023-05-10T18:39:25.259Z,3.30
2023-05-10T18:41:52.514Z,3.35
2023-05-10T18:44:19.785Z,3.53
2023-05-10T18:46:48.402Z,4.70
2023-05-10T18:49:15.626Z,3.65
2023-05-10T18:51:42.878Z,3.30
2023-05-10T18:54:10.083Z,3.03
2023-05-10T18:56:39.582Z,3.58
2023-05-10T18:59:06.855Z,3.30
2023-05-10T19:01:34.154Z,3.20
2023-05-10T19:04:02.822Z,3.20
2023-05-10T19:06:30.102Z,2.85
2023-05-10T19:08:57.347Z,4.32
2023-05-10T19:11:24.605Z,3.35
2023-05-10T19:13:51.832Z,3.10
2023-05-10T19:16:24.245Z,3.05
2023-05-10T19:18:51.786Z,3.15
2023-05-10T19:21:20.521Z,3.42
2023-05-10T19:23:48.432Z,3.20
2023-05-10T19:26:15.639Z,3.20
2023-05-10T19:28:42.861Z,3.05
2023-05-10T19:31:10.144Z,2.85
2023-05-10T19:33:38.383Z,3.13
2023-05-10T19:36:07.247Z,3.20
2023-05-10T19:38:36.206Z,2.80
2023-05-10T19:41:03.481Z,3.20
2023-05-10T19:43:33.408Z,2.83
2023-05-10T19:46:01.946Z,2.70
2023-05-10T19:48:29.214Z,2.80
2023-05-10T19:50:59.967Z,3.58
2023-05-10T19:53:27.197Z,3.10
2023-05-10T19:55:55.741Z,2.90
2023-05-10T19:58:23.377Z,2.80
2023-05-10T20:00:50.671Z,3.22
2023-05-10T20:03:18.043Z,3.33
2023-05-10T20:05:45.278Z,3.03
2023-05-10T20:08:12.485Z,2.80
2023-05-10T20:10:39.745Z,3.00
2023-05-10T20:13:08.412Z,3.08
2023-05-10T20:15:35.645Z,3.10
2023-05-10T20:18:03.534Z,3.20
2023-05-10T20:20:30.861Z,2.63
2023-05-10T20:22:58.083Z,2.70
2023-05-10T20:25:25.463Z,3.17
2023-05-10T20:27:52.855Z,3.00
2023-05-10T20:30:21.406Z,3.17
2023-05-10T20:32:48.660Z,3.03
2023-05-10T20:35:15.946Z,3.20
2023-05-10T20:37:43.141Z,3.13
2023-05-10T20:40:11.171Z,3.40
2023-05-10T20:42:38.449Z,3.10
2023-05-10T20:45:06.315Z,2.97
2023-05-10T20:47:34.942Z,3.30
2023-05-10T20:50:02.177Z,3.58
2023-05-10T20:52:29.463Z,3.28
2023-05-10T20:54:56.688Z,3.13
2023-05-10T20:57:23.911Z,3.28
2023-05-10T20:59:51.166Z,3.45
2023-05-10T21:02:18.389Z,3.38
2023-05-10T21:04:46.980Z,3.00
2023-05-10T21:07:14.193Z,3.38
2023-05-10T21:09:41.408Z,3.50
2023-05-10T21:12:08.680Z,3.55
2023-05-10T21:14:35.911Z,3.10
2023-05-10T21:17:03.132Z,3.55
2023-05-10T21:19:30.316Z,3.50
2023-05-10T21:21:59.654Z,3.63
2023-05-10T21:24:27.095Z,3.88
2023-05-10T21:26:54.317Z,3.03
2023-05-10T21:29:21.518Z,3.50
2023-05-10T21:31:48.982Z,5.00
2023-05-10T21:34:17.838Z,3.20
2023-05-10T21:36:45.046Z,3.58
2023-05-10T21:39:13.589Z,3.25
2023-05-10T21:41:40.966Z,3.25
2023-05-10T21:44:08.198Z,3.30
2023-05-10T21:46:35.549Z,4.65
2023-05-10T21:49:02.802Z,3.55
2023-05-10T21:51:30.027Z,3.47
2023-05-10T21:53:57.243Z,4.07
2023-05-10T21:56:25.791Z,3.10
2023-05-10T21:58:53.016Z,2.90
2023-05-10T22:01:20.303Z,3.50
2023-05-10T22:03:47.822Z,4.18
2023-05-10T22:06:15.095Z,4.20
2023-05-10T22:08:42.367Z,3.40
2023-05-10T22:11:09.663Z,3.65
2023-05-10T22:13:38.204Z,3.25
2023-05-10T22:16:06.805Z,3.38
2023-05-10T22:18:34.085Z,3.28
2023-05-10T22:21:01.439Z,3.92
2023-05-10T22:23:28.646Z,4.40
2023-05-10T22:25:58.136Z,3.60
2023-05-10T22:28:25.483Z,3.10
2023-05-10T22:30:54.110Z,3.42
2023-05-10T22:33:21.333Z,4.20
2023-05-10T22:35:48.555Z,3.67
2023-05-10T22:38:15.749Z,3.17
2023-05-10T22:40:43.010Z,3.70
2023-05-10T22:43:11.364Z,3.85
2023-05-10T22:45:38.587Z,3.80
2023-05-10T22:48:08.376Z,3.53
2023-05-10T22:50:36.723Z,5.07
2023-05-10T22:53:03.958Z,3.75
2023-05-10T22:55:31.203Z,3.97
2023-05-10T22:57:58.410Z,4.47
2023-05-10T23:00:25.678Z,3.00
2023-05-10T23:02:53.104Z,3.50
2023-05-10T23:05:21.714Z,3.70
2023-05-10T23:07:53.105Z,4.57
2023-05-10T23:10:20.562Z,3.78
2023-05-10T23:12:47.885Z,4.47
2023-05-10T23:15:15.238Z,3.60
2023-05-10T23:17:42.604Z,4.57
2023-05-10T23:20:10.383Z,4.30
2023-05-10T23:22:39.170Z,3.20
2023-05-10T23:25:06.917Z,4.55
2023-05-10T23:27:34.225Z,3.60
2023-05-10T23:30:01.493Z,4.72
2023-05-10T23:32:28.797Z,3.90
2023-05-10T23:34:56.405Z,3.67
2023-05-10T23:37:23.646Z,3.65
2023-05-10T23:39:52.377Z,3.55
2023-05-10T23:42:19.590Z,3.65
2023-05-10T23:44:46.808Z,3.92
2023-05-10T23:47:14.076Z,4.10
2023-05-10T23:49:42.024Z,3.90
2023-05-10T23:52:09.262Z,4.43
2023-05-10T23:54:36.445Z,4.10
2023-05-10T23:57:05.033Z,5.30
2023-05-10T23:59:32.235Z,3.75
